This is the latest recevied weather packets stored in our database for station/object N4OOJ-13. If no packets are shown the sender has not sent any weather packets the latest 10 day(s).
| Time | Temp. | Humidity | Pressure | Rain* | Wind** | Luminosity | Snow |
|---|---|---|---|---|---|---|---|
| 1778107233 | 28.89° C | 59% | 1015.2 hPa | 0 mm | - | - | - |
| 1778106633 | 30° C | 56% | 1015.1 hPa | 0 mm | - | - | - |
| 1778106032 | 30.56° C | 56% | 1015.2 hPa | 0 mm | - | - | - |
| 1778105425 | 30.56° C | 56% | 1015.1 hPa | 0 mm | - | - | - |
| 1778104825 | 32.22° C | 53% | 1015 hPa | 0 mm | - | - | - |
| 1778104219 | 30.56° C | 55% | 1014.8 hPa | 0 mm | - | - | - |
| 1778103620 | 30.56° C | 54% | 1014.8 hPa | 0 mm | - | - | - |
| 1778103033 | 31.11° C | 53% | 1014.9 hPa | 0 mm | - | - | - |
| 1778102428 | 31.11° C | 53% | 1014.8 hPa | 0 mm | - | - | - |
| 1778101828 | 31.67° C | 48% | 1014.9 hPa | 0 mm | - | - | - |
| 1778101227 | 31.67° C | 46% | 1015 hPa | 0 mm | - | - | - |
| 1778100626 | 32.22° C | 46% | 1015 hPa | 0 mm | - | - | - |
| 1778100020 | 32.22° C | 46% | 1015 hPa | 0 mm | - | - | - |
| 1778099418 | 32.22° C | 47% | 1015.3 hPa | 0 mm | - | - | - |
| 1778098823 | 32.22° C | 46% | 1015.5 hPa | 0 mm | - | - | - |
| 1778098217 | 32.22° C | 45% | 1015.5 hPa | 0 mm | - | - | - |
| 1778097618 | 32.22° C | 45% | 1015.6 hPa | 0 mm | - | - | - |
| 1778097032 | 32.22° C | 46% | 1015.6 hPa | 0 mm | - | - | - |
| 1778096431 | 32.78° C | 44% | 1015.8 hPa | 0 mm | - | - | - |
| 1778095826 | 32.78° C | 44% | 1016.1 hPa | 0 mm | - | - | - |
| 1778095226 | 32.22° C | 46% | 1016.3 hPa | 0 mm | - | - | - |
| 1778094627 | 31.67° C | 46% | 1016.5 hPa | 0 mm | - | - | - |
| 1778094027 | 31.67° C | 45% | 1016.7 hPa | 0 mm | - | - | - |
| 1778093425 | 32.22° C | 44% | 1016.8 hPa | 0 mm | - | - | - |
| 1778092824 | 30.56° C | 49% | 1016.9 hPa | 0 mm | - | - | - |
* Rain latest hour (hover to see other rain measurements)
** Current wind speed in m/s (hover to see current wind gust speed)